createdAt,value
2022-08-19T00:02:09.430Z,46.20
2022-08-19T00:04:37.567Z,43.67
2022-08-19T00:07:07.999Z,47.73
2022-08-19T00:09:35.548Z,44.40
2022-08-19T00:12:03.784Z,42.97
2022-08-19T00:14:32.186Z,45.70
2022-08-19T00:16:59.882Z,44.17
2022-08-19T00:19:27.276Z,47.60
2022-08-19T00:21:56.095Z,46.43
2022-08-19T00:24:23.574Z,46.67
2022-08-19T00:26:51.521Z,45.70
2022-08-19T00:29:22.970Z,45.87
2022-08-19T00:31:54.446Z,46.43
2022-08-19T00:34:24.307Z,45.90
2022-08-19T00:36:51.503Z,44.43
2022-08-19T00:39:19.042Z,46.47
2022-08-19T00:41:50.463Z,46.80
2022-08-19T00:44:28.203Z,46.53
2022-08-19T00:46:59.886Z,47.00
2022-08-19T00:49:52.048Z,48.03
2022-08-19T00:52:35.780Z,47.67
2022-08-19T00:55:09.560Z,47.73
2022-08-19T00:57:45.419Z,48.33
2022-08-19T01:00:18.392Z,47.57
2022-08-19T01:02:45.775Z,51.20
2022-08-19T01:05:22.375Z,48.50
2022-08-19T01:07:51.760Z,50.90
2022-08-19T01:10:27.757Z,51.07
2022-08-19T01:12:58.917Z,49.43
2022-08-19T01:15:34.923Z,50.37
2022-08-19T01:18:11.897Z,50.53
2022-08-19T01:20:41.321Z,51.73
2022-08-19T01:23:09.084Z,51.70
2022-08-19T01:25:56.665Z,53.47
2022-08-19T01:28:34.009Z,52.27
2022-08-19T01:31:01.944Z,52.10
2022-08-19T01:33:35.610Z,53.27
2022-08-19T01:36:23.303Z,51.60
2022-08-19T01:38:50.389Z,50.33
2022-08-19T01:41:19.393Z,52.07
2022-08-19T01:44:13.780Z,51.80
2022-08-19T01:46:35.045Z,52.80
2022-08-19T01:49:06.525Z,50.07
2022-08-19T01:51:38.451Z,50.07
2022-08-19T01:54:13.456Z,51.00
2022-08-19T01:56:40.461Z,54.47
2022-08-19T01:59:17.137Z,55.50
2022-08-19T02:01:44.723Z,52.57
2022-08-19T02:04:12.321Z,54.70
2022-08-19T02:06:40.355Z,51.37
2022-08-19T02:09:09.640Z,54.07
2022-08-19T02:11:38.981Z,52.20
2022-08-19T02:14:09.049Z,52.23
2022-08-19T02:16:38.221Z,51.13
2022-08-19T02:19:06.261Z,49.93
2022-08-19T02:21:34.134Z,50.53
2022-08-19T02:24:01.125Z,51.20
2022-08-19T02:26:28.154Z,48.03
2022-08-19T02:28:56.235Z,51.30
2022-08-19T02:31:26.805Z,51.47
2022-08-19T02:33:56.892Z,51.43
2022-08-19T02:36:26.365Z,50.40
2022-08-19T02:38:55.563Z,52.00
2022-08-19T02:41:32.098Z,49.53
2022-08-19T02:44:29.303Z,51.20
2022-08-19T02:46:53.190Z,48.23
2022-08-19T02:49:20.539Z,48.90
2022-08-19T02:51:48.344Z,46.47
2022-08-19T02:54:16.371Z,49.07
2022-08-19T02:56:45.227Z,49.93
2022-08-19T02:59:13.199Z,51.93
2022-08-19T03:01:43.336Z,51.13
2022-08-19T03:04:16.431Z,50.97
2022-08-19T03:06:48.107Z,50.73
2022-08-19T03:09:17.836Z,49.30
2022-08-19T03:11:45.269Z,52.97
2022-08-19T03:14:14.156Z,49.90
2022-08-19T03:16:50.773Z,50.47
2022-08-19T03:19:24.222Z,50.00
2022-08-19T03:21:53.086Z,51.53
2022-08-19T03:24:21.174Z,52.10
2022-08-19T03:26:58.577Z,50.17
2022-08-19T03:29:31.623Z,51.20
2022-08-19T03:32:07.443Z,51.57
2022-08-19T03:34:51.844Z,50.63
2022-08-19T03:37:18.818Z,48.77
2022-08-19T03:39:45.752Z,53.50
2022-08-19T03:42:32.753Z,51.37
2022-08-19T03:45:00.291Z,49.87
2022-08-19T03:47:27.333Z,50.77
2022-08-19T03:49:54.309Z,50.27
2022-08-19T03:52:21.265Z,51.53
2022-08-19T03:54:48.259Z,52.37
2022-08-19T03:57:15.191Z,53.60
2022-08-19T03:59:42.204Z,51.60
2022-08-19T04:02:13.171Z,51.00
2022-08-19T04:04:44.612Z,51.73
2022-08-19T04:07:16.967Z,49.20
2022-08-19T04:09:44.395Z,49.50
2022-08-19T04:12:11.296Z,48.83
2022-08-19T04:14:38.260Z,49.80
2022-08-19T04:17:05.683Z,50.83
2022-08-19T04:19:36.164Z,49.27
2022-08-19T04:22:04.791Z,49.17
2022-08-19T04:24:32.219Z,47.83
2022-08-19T04:27:03.492Z,48.47
2022-08-19T04:29:31.241Z,48.03
2022-08-19T04:32:00.413Z,49.10
2022-08-19T04:35:01.550Z,49.77
2022-08-19T04:37:34.714Z,46.17
2022-08-19T04:40:24.792Z,49.37
2022-08-19T04:42:52.088Z,48.10
2022-08-19T04:45:19.305Z,45.27
2022-08-19T04:47:58.340Z,46.77
2022-08-19T04:50:27.758Z,47.47
2022-08-19T04:52:56.589Z,47.87
2022-08-19T04:55:26.813Z,44.40
2022-08-19T04:57:55.588Z,45.23
2022-08-19T05:00:23.642Z,43.40
2022-08-19T05:02:50.756Z,44.97
2022-08-19T05:05:18.441Z,43.43
2022-08-19T05:07:45.431Z,41.53
2022-08-19T05:10:13.613Z,43.33
2022-08-19T05:12:40.860Z,43.20
2022-08-19T05:15:09.593Z,42.33
2022-08-19T05:17:39.016Z,42.57
2022-08-19T05:20:27.797Z,42.53
2022-08-19T05:22:56.668Z,43.73
2022-08-19T05:25:24.205Z,41.70
2022-08-19T05:27:51.140Z,41.60
2022-08-19T05:30:30.202Z,42.67
2022-08-19T05:33:06.117Z,41.93
2022-08-19T05:35:34.592Z,42.53
2022-08-19T05:38:01.907Z,42.13
2022-08-19T05:40:29.413Z,42.67
2022-08-19T05:42:56.844Z,41.40
2022-08-19T05:45:23.801Z,42.33
2022-08-19T05:47:50.709Z,40.87
2022-08-19T05:50:18.415Z,41.03
2022-08-19T05:52:50.696Z,40.03
2022-08-19T05:55:21.059Z,40.90
2022-08-19T05:57:48.351Z,41.10
2022-08-19T06:00:16.151Z,42.10
2022-08-19T06:02:43.168Z,40.90
2022-08-19T06:05:11.624Z,36.73
2022-08-19T06:07:40.647Z,41.40
2022-08-19T06:10:12.276Z,38.63
2022-08-19T06:12:40.334Z,38.57
2022-08-19T06:15:14.333Z,39.87
2022-08-19T06:17:42.826Z,37.90
2022-08-19T06:20:15.876Z,37.37
2022-08-19T06:22:47.737Z,38.30
2022-08-19T06:25:16.300Z,36.63
2022-08-19T06:28:11.448Z,35.17
2022-08-19T06:30:31.019Z,34.90
2022-08-19T06:32:58.066Z,38.00
2022-08-19T06:35:26.198Z,35.50
2022-08-19T06:37:53.439Z,37.80
2022-08-19T06:40:20.562Z,37.73
2022-08-19T06:42:54.901Z,37.60
2022-08-19T06:45:24.964Z,34.60
2022-08-19T06:48:01.691Z,36.97
2022-08-19T06:50:28.715Z,34.70
2022-08-19T06:52:55.822Z,33.90
2022-08-19T06:55:23.063Z,35.80
2022-08-19T06:57:54.241Z,32.10
2022-08-19T07:00:21.837Z,28.97
2022-08-19T07:02:54.276Z,32.47
2022-08-19T07:05:26.344Z,33.10
2022-08-19T07:07:53.317Z,29.90
2022-08-19T07:10:24.802Z,30.17
2022-08-19T07:12:53.038Z,27.97
2022-08-19T07:15:22.122Z,26.80
2022-08-19T07:17:52.674Z,24.90
2022-08-19T07:20:20.167Z,24.17
2022-08-19T07:22:47.228Z,26.00
2022-08-19T07:25:14.436Z,24.20
2022-08-19T07:27:41.288Z,25.17
2022-08-19T07:30:14.277Z,24.43
2022-08-19T07:32:41.863Z,25.10
2022-08-19T07:35:10.452Z,21.03
2022-08-19T07:37:39.143Z,22.53
2022-08-19T07:40:09.809Z,22.10
2022-08-19T07:42:36.968Z,21.70
2022-08-19T07:45:07.878Z,27.93
2022-08-19T07:47:49.644Z,23.53
2022-08-19T07:50:20.966Z,23.00
2022-08-19T07:52:50.688Z,22.73
2022-08-19T07:55:41.764Z,23.70
2022-08-19T07:58:14.472Z,23.27
2022-08-19T08:04:17.065Z,23.43
2022-08-19T08:07:03.137Z,24.83
2022-08-19T08:09:39.430Z,23.77
2022-08-19T08:12:34.270Z,32.73
2022-08-19T08:15:08.872Z,23.63
2022-08-19T08:17:49.611Z,21.93
2022-08-19T08:20:20.514Z,23.20
2022-08-19T08:23:07.584Z,21.50
2022-08-19T08:25:37.105Z,20.50
2022-08-19T08:28:05.318Z,19.47
2022-08-19T08:30:34.117Z,19.03
2022-08-19T08:33:02.509Z,19.57
2022-08-19T08:35:30.071Z,18.90
2022-08-19T08:37:57.682Z,20.90
2022-08-19T08:40:45.341Z,20.17
2022-08-19T08:43:44.392Z,21.80
2022-08-19T08:46:30.664Z,20.23
2022-08-19T08:49:31.646Z,19.30
2022-08-19T08:52:16.334Z,18.20
2022-08-19T08:54:54.978Z,18.63
2022-08-19T08:57:49.653Z,18.03
2022-08-19T09:00:31.629Z,19.53
2022-08-19T09:03:02.770Z,19.50
2022-08-19T09:06:01.081Z,19.23
2022-08-19T09:09:12.080Z,17.77
2022-08-19T09:12:08.081Z,18.97
2022-08-19T09:15:02.066Z,17.60
2022-08-19T09:17:36.287Z,18.63
2022-08-19T09:20:26.153Z,18.33
2022-08-19T09:22:53.349Z,19.13
2022-08-19T09:25:24.804Z,19.40
2022-08-19T09:28:02.750Z,18.30
2022-08-19T09:30:40.763Z,19.00
2022-08-19T09:33:09.165Z,18.10
2022-08-19T09:35:53.263Z,19.03
2022-08-19T09:38:22.333Z,18.03
2022-08-19T09:40:50.534Z,19.70
2022-08-19T09:43:33.104Z,18.53
2022-08-19T09:46:02.315Z,18.17
2022-08-19T09:48:29.692Z,18.03
2022-08-19T09:51:06.527Z,19.23
2022-08-19T09:53:33.529Z,19.50
2022-08-19T09:56:04.157Z,18.07
2022-08-19T09:58:32.252Z,20.47
2022-08-19T10:01:02.792Z,20.70
2022-08-19T10:03:33.855Z,20.43
2022-08-19T10:06:14.982Z,22.93
2022-08-19T10:08:49.918Z,21.10
2022-08-19T10:11:28.600Z,23.27
2022-08-19T10:14:06.664Z,24.87
2022-08-19T10:16:39.577Z,24.07
2022-08-19T10:19:07.027Z,24.97
2022-08-19T10:21:35.263Z,23.97
2022-08-19T10:24:06.504Z,21.50
2022-08-19T10:26:45.403Z,22.80
2022-08-19T10:29:31.927Z,23.00
2022-08-19T10:32:10.045Z,23.90
2022-08-19T10:34:48.486Z,24.00
2022-08-19T10:37:28.826Z,26.07
2022-08-19T10:39:59.549Z,26.90
2022-08-19T10:42:26.643Z,26.20
2022-08-19T10:44:53.543Z,24.57
2022-08-19T10:47:25.591Z,26.73
2022-08-19T10:50:14.064Z,27.83
2022-08-19T10:52:49.865Z,29.40
2022-08-19T10:55:42.021Z,28.73
2022-08-19T10:58:26.254Z,27.40
2022-08-19T11:00:58.846Z,31.20
2022-08-19T11:03:30.003Z,29.07
2022-08-19T11:06:09.607Z,30.73
2022-08-19T11:08:39.436Z,28.13
2022-08-19T11:11:09.188Z,32.10
2022-08-19T11:13:43.628Z,30.73
2022-08-19T11:16:19.088Z,30.97
2022-08-19T11:18:55.785Z,30.63
2022-08-19T11:21:40.746Z,28.80
2022-08-19T11:24:16.148Z,29.30
2022-08-19T11:26:45.599Z,30.80
2022-08-19T11:29:14.984Z,27.33
2022-08-19T11:31:47.804Z,26.87
2022-08-19T11:34:21.970Z,28.37
2022-08-19T11:36:52.577Z,28.37
2022-08-19T11:39:23.008Z,27.63
2022-08-19T11:41:50.329Z,26.23
2022-08-19T11:44:17.700Z,25.20
2022-08-19T11:46:47.356Z,24.20
2022-08-19T11:49:22.334Z,24.50
2022-08-19T11:51:51.528Z,24.90
2022-08-19T11:54:20.624Z,23.10
2022-08-19T11:56:48.906Z,25.57
2022-08-19T11:59:16.717Z,25.80
2022-08-19T12:01:44.371Z,25.57
2022-08-19T12:04:12.209Z,29.10
2022-08-19T12:06:42.036Z,25.90
2022-08-19T12:09:11.917Z,25.77
2022-08-19T12:11:41.353Z,26.43
2022-08-19T12:14:14.972Z,26.67
2022-08-19T12:16:50.919Z,25.53
2022-08-19T12:19:22.135Z,27.33
2022-08-19T12:21:51.806Z,27.13
2022-08-19T12:24:24.104Z,27.93
2022-08-19T12:26:53.228Z,28.30
2022-08-19T12:29:29.198Z,30.97
2022-08-19T12:32:01.969Z,30.27
2022-08-19T12:34:34.047Z,30.40
2022-08-19T12:37:05.961Z,29.50
2022-08-19T12:39:42.219Z,29.60
2022-08-19T12:42:12.384Z,26.67
2022-08-19T12:44:43.389Z,28.47
2022-08-19T12:47:15.392Z,30.93
2022-08-19T12:49:55.258Z,30.33
2022-08-19T12:52:27.902Z,31.17
2022-08-19T12:54:59.010Z,30.20
2022-08-19T12:57:32.230Z,31.80
2022-08-19T13:00:18.618Z,30.73
2022-08-19T13:02:51.305Z,33.73
2022-08-19T13:05:34.186Z,32.90
2022-08-19T13:08:01.971Z,32.13
2022-08-19T13:10:35.632Z,32.10
2022-08-19T13:13:07.518Z,32.43
2022-08-19T13:15:40.498Z,32.70
2022-08-19T13:18:11.210Z,33.10
2022-08-19T13:20:41.572Z,33.83
2022-08-19T13:23:10.206Z,31.20
2022-08-19T13:25:37.683Z,30.93
2022-08-19T13:28:07.270Z,31.60
2022-08-19T13:30:52.815Z,30.20
2022-08-19T13:33:20.123Z,31.63
2022-08-19T13:36:01.387Z,30.47
2022-08-19T13:38:29.331Z,29.93
2022-08-19T13:40:56.772Z,28.50
2022-08-19T13:43:28.542Z,28.73
2022-08-19T13:45:57.236Z,30.07
2022-08-19T13:48:27.823Z,29.93
2022-08-19T13:50:55.673Z,30.03
2022-08-19T13:53:23.163Z,28.30
2022-08-19T13:55:51.923Z,26.53
2022-08-19T13:58:19.127Z,27.10
2022-08-19T14:00:47.738Z,27.47
2022-08-19T14:03:15.035Z,26.93
2022-08-19T14:05:42.134Z,26.50
2022-08-19T14:08:10.125Z,27.40
2022-08-19T14:10:37.196Z,27.60
2022-08-19T14:13:05.397Z,28.40
2022-08-19T14:15:35.254Z,30.47
2022-08-19T14:18:05.568Z,28.47
2022-08-19T14:20:40.160Z,30.67
2022-08-19T14:23:11.360Z,29.03
2022-08-19T14:25:42.795Z,29.77
2022-08-19T14:28:14.212Z,27.63
2022-08-19T14:30:46.962Z,30.97
2022-08-19T14:33:18.064Z,30.87
2022-08-19T14:35:48.853Z,30.03
2022-08-19T14:38:31.163Z,28.70
2022-08-19T14:41:18.980Z,23.33
2022-08-19T14:43:55.579Z,18.27
2022-08-19T14:46:31.381Z,19.17
2022-08-19T14:49:02.596Z,19.03
2022-08-19T14:51:41.036Z,16.27
2022-08-19T14:54:12.185Z,17.23
2022-08-19T14:56:45.802Z,19.63
2022-08-19T14:59:17.417Z,19.00
2022-08-19T15:01:48.312Z,17.40
2022-08-19T15:04:19.896Z,20.13
2022-08-19T15:06:53.677Z,17.93
2022-08-19T15:09:24.689Z,18.67
2022-08-19T15:11:55.381Z,18.03
2022-08-19T15:14:35.940Z,17.47
2022-08-19T15:17:08.493Z,17.33
2022-08-19T15:19:39.589Z,18.80
2022-08-19T15:22:10.358Z,19.93
2022-08-19T15:24:48.055Z,20.97
2022-08-19T15:27:19.524Z,19.40
2022-08-19T15:29:56.444Z,18.53
2022-08-19T15:32:33.221Z,18.10
2022-08-19T15:35:08.160Z,19.70
2022-08-19T15:37:38.923Z,20.77
2022-08-19T15:40:11.587Z,20.13
2022-08-19T15:42:46.065Z,22.00
2022-08-19T15:45:20.130Z,22.00
2022-08-19T15:47:51.287Z,23.17
2022-08-19T15:50:25.221Z,22.03
2022-08-19T15:53:07.271Z,22.80
2022-08-19T15:55:47.850Z,23.77
2022-08-19T15:58:37.562Z,21.90
2022-08-19T16:01:29.127Z,21.13
2022-08-19T16:04:22.466Z,22.27
2022-08-19T16:07:00.475Z,22.03
2022-08-19T16:09:36.187Z,21.77
2022-08-19T16:12:10.302Z,20.50
2022-08-19T16:14:41.314Z,21.27
2022-08-19T16:17:13.842Z,21.10
2022-08-19T16:19:44.142Z,20.90
2022-08-19T16:22:15.188Z,21.80
2022-08-19T16:24:46.643Z,21.63
2022-08-19T16:27:20.906Z,20.70
2022-08-19T16:29:51.588Z,19.40
2022-08-19T16:32:23.243Z,22.07
2022-08-19T16:34:54.383Z,21.63
2022-08-19T16:37:25.819Z,23.87
2022-08-19T16:39:56.904Z,28.57
2022-08-19T16:42:28.122Z,29.97
2022-08-19T16:44:59.587Z,29.90
2022-08-19T16:47:30.867Z,31.57
2022-08-19T16:50:01.844Z,32.33
2022-08-19T16:52:33.844Z,32.17
2022-08-19T16:55:06.793Z,31.90
2022-08-19T16:57:38.087Z,30.97
2022-08-19T17:00:13.016Z,31.73
2022-08-19T17:02:44.537Z,32.93
2022-08-19T17:05:16.468Z,32.47
2022-08-19T17:07:47.371Z,32.93
2022-08-19T17:10:18.415Z,33.40
2022-08-19T17:12:46.116Z,33.13
2022-08-19T17:15:14.595Z,32.73
2022-08-19T17:17:46.599Z,35.67
2022-08-19T17:20:17.398Z,33.50
2022-08-19T17:22:44.905Z,31.27
2022-08-19T17:25:13.256Z,31.37
2022-08-19T17:27:45.079Z,29.83
2022-08-19T17:30:16.170Z,29.40
2022-08-19T17:32:46.667Z,26.73
2022-08-19T17:35:21.128Z,26.20
2022-08-19T17:37:51.294Z,28.60
2022-08-19T17:40:23.789Z,27.43
2022-08-19T17:42:52.540Z,30.87
2022-08-19T17:45:20.608Z,29.50
2022-08-19T17:47:48.272Z,29.60
2022-08-19T17:50:16.424Z,28.63
2022-08-19T17:52:44.224Z,28.43
2022-08-19T17:55:11.856Z,27.77
2022-08-19T17:57:46.112Z,27.00
2022-08-19T18:00:16.244Z,31.37
2022-08-19T18:03:00.280Z,28.33
2022-08-19T18:05:34.452Z,26.20
2022-08-19T18:08:01.844Z,27.03
2022-08-19T18:10:35.332Z,24.67
2022-08-19T18:13:02.454Z,25.00
2022-08-19T18:15:44.685Z,26.10
2022-08-19T18:18:14.997Z,25.27
2022-08-19T18:20:44.336Z,25.33
2022-08-19T18:23:41.287Z,23.87
2022-08-19T18:25:58.424Z,24.83
2022-08-19T18:28:25.734Z,23.83
2022-08-19T18:30:53.353Z,24.13
2022-08-19T18:33:20.885Z,23.10
2022-08-19T18:35:52.772Z,22.77
2022-08-19T18:38:41.610Z,24.27
2022-08-19T18:41:28.049Z,22.70
2022-08-19T18:44:13.593Z,21.37
2022-08-19T18:46:59.402Z,20.77
2022-08-19T18:49:33.189Z,22.83
2022-08-19T18:52:03.114Z,19.30
2022-08-19T18:54:30.641Z,21.53
2022-08-19T18:56:57.981Z,20.57
2022-08-19T18:59:28.811Z,21.33
2022-08-19T19:02:00.257Z,27.13
2022-08-19T19:04:33.969Z,21.50
2022-08-19T19:07:01.114Z,20.10
2022-08-19T19:09:28.665Z,21.67
2022-08-19T19:12:01.451Z,19.73
2022-08-19T19:14:50.976Z,18.80
2022-08-19T19:17:18.533Z,18.27
2022-08-19T19:19:45.684Z,18.77
2022-08-19T19:22:19.878Z,18.70
2022-08-19T19:24:46.900Z,19.80
2022-08-19T19:27:20.134Z,20.07
2022-08-19T19:29:52.296Z,18.53
2022-08-19T19:32:38.777Z,19.00
2022-08-19T19:35:10.458Z,18.37
2022-08-19T19:37:37.413Z,16.50
2022-08-19T19:40:05.018Z,17.40
2022-08-19T19:42:31.996Z,17.13
2022-08-19T19:45:00.295Z,16.40
2022-08-19T19:47:28.328Z,17.10
2022-08-19T19:50:14.634Z,16.67
2022-08-19T19:52:46.831Z,17.87
2022-08-19T19:55:18.227Z,18.47
2022-08-19T19:57:50.170Z,20.50
2022-08-19T20:00:18.993Z,18.30
2022-08-19T20:02:50.135Z,17.83
2022-08-19T20:05:22.834Z,20.43
2022-08-19T20:08:11.363Z,19.97
2022-08-19T20:10:41.215Z,20.30
2022-08-19T20:13:10.255Z,17.53
2022-08-19T20:15:42.628Z,18.87
2022-08-19T20:18:14.188Z,22.13
2022-08-19T20:20:43.351Z,20.80
2022-08-19T20:23:10.827Z,18.60
2022-08-19T20:25:38.981Z,21.23
2022-08-19T20:28:05.911Z,19.60
2022-08-19T20:30:33.339Z,17.33
2022-08-19T20:33:04.429Z,19.50
2022-08-19T20:35:31.319Z,18.60
2022-08-19T20:38:03.573Z,19.57
2022-08-19T20:40:32.164Z,18.40
2022-08-19T20:42:59.043Z,18.43
2022-08-19T20:45:33.065Z,22.70
2022-08-19T20:48:05.187Z,18.53
2022-08-19T20:50:36.224Z,17.80
2022-08-19T20:53:17.259Z,17.97
2022-08-19T20:55:49.191Z,17.60
2022-08-19T20:58:23.168Z,18.77
2022-08-19T21:00:57.743Z,19.20
2022-08-19T21:03:35.000Z,18.33
2022-08-19T21:06:13.801Z,18.30
2022-08-19T21:08:41.694Z,19.43
2022-08-19T21:11:10.367Z,17.50
2022-08-19T21:13:37.744Z,17.27
2022-08-19T21:16:05.304Z,17.73
2022-08-19T21:18:36.641Z,19.37
2022-08-19T21:21:04.371Z,18.80
2022-08-19T21:23:32.852Z,18.83
2022-08-19T21:26:01.812Z,19.20
2022-08-19T21:28:36.444Z,18.00
2022-08-19T21:31:06.992Z,19.07
2022-08-19T21:33:34.334Z,18.13
2022-08-19T21:36:02.476Z,18.50
2022-08-19T21:38:30.147Z,17.37
2022-08-19T21:40:57.573Z,18.10
2022-08-19T21:43:25.068Z,19.17
2022-08-19T21:45:51.970Z,19.30
2022-08-19T21:48:19.389Z,17.23
2022-08-19T21:50:48.351Z,19.73
2022-08-19T21:53:19.432Z,18.27
2022-08-19T21:55:53.697Z,19.90
2022-08-19T21:58:28.259Z,18.83
2022-08-19T22:01:06.100Z,19.20
2022-08-19T22:03:37.101Z,18.67
2022-08-19T22:06:04.857Z,19.83
2022-08-19T22:08:31.884Z,20.63
2022-08-19T22:11:01.517Z,19.00
2022-08-19T22:13:36.837Z,19.13
2022-08-19T22:16:08.301Z,19.47
2022-08-19T22:18:35.366Z,19.77
2022-08-19T22:21:06.412Z,22.93
2022-08-19T22:23:36.673Z,21.93
2022-08-19T22:26:03.685Z,21.13
2022-08-19T22:28:30.597Z,22.20
2022-08-19T22:30:57.790Z,21.23
2022-08-19T22:33:27.452Z,21.90
2022-08-19T22:35:54.493Z,20.33
2022-08-19T22:38:22.782Z,21.70
2022-08-19T22:40:52.242Z,20.47
2022-08-19T22:43:31.734Z,20.30
2022-08-19T22:46:00.580Z,17.83
2022-08-19T22:48:32.448Z,22.13
2022-08-19T22:51:19.336Z,20.30
2022-08-19T22:53:48.078Z,19.03
2022-08-19T22:56:18.778Z,19.23
2022-08-19T22:58:50.112Z,20.50
2022-08-19T23:01:27.433Z,20.10
2022-08-19T23:03:59.274Z,24.60
2022-08-19T23:06:33.286Z,25.70
2022-08-19T23:09:06.788Z,20.43
2022-08-19T23:11:41.904Z,21.37
2022-08-19T23:14:11.224Z,24.30
2022-08-19T23:16:38.650Z,27.43
2022-08-19T23:19:07.200Z,21.20
2022-08-19T23:21:36.067Z,22.10
2022-08-19T23:24:04.379Z,22.03
2022-08-19T23:26:35.599Z,21.20
2022-08-19T23:29:24.236Z,20.30
2022-08-19T23:31:51.419Z,23.23
2022-08-19T23:34:18.342Z,24.77
2022-08-19T23:36:46.179Z,22.73
2022-08-19T23:39:13.166Z,22.40
2022-08-19T23:41:40.124Z,22.77
2022-08-19T23:44:07.046Z,22.77
2022-08-19T23:46:55.009Z,24.37
2022-08-19T23:49:25.017Z,22.73
2022-08-19T23:51:54.446Z,24.13
2022-08-19T23:54:21.908Z,24.87
2022-08-19T23:57:01.279Z,23.83
2022-08-19T23:59:28.164Z,27.07
